Time;durP1;ratioP1;P1;durP2;ratioP2;P2;SDS_P1;SDS_P2;PMS_P1;PMS_P2;Temp;Humidity;BMP_temperature;BMP_pressure;BME280_temperature;BME280_humidity;BME280_pressure;Samples;Min_cycle;Max_cycle;Signal;HPM_P1;HPM_P2
2024/02/09 00:03:19;;;;;;;8.97;3.90;;;12.80;42.40;;;;;;10530763;28;20299;-67
2024/02/09 00:08:23;;;;;;;6.10;3.03;;;12.80;42.40;;;;;;10529541;28;20238;-66
2024/02/09 00:13:28;;;;;;;9.93;2.83;;;12.80;42.40;;;;;;10528101;28;20246;-67
2024/02/09 00:18:33;;;;;;;6.50;2.57;;;12.90;42.50;;;;;;10529723;28;20313;-67
2024/02/09 00:23:36;;;;;;;8.50;3.17;;;13.00;42.60;;;;;;10530418;28;20709;-69
2024/02/09 00:28:39;;;;;;;8.60;3.00;;;13.00;42.60;;;;;;10528173;28;20701;-70
2024/02/09 00:33:44;;;;;;;6.87;3.13;;;13.10;42.50;;;;;;10525935;28;20255;-69
2024/02/09 00:38:50;;;;;;;8.63;3.47;;;13.10;42.70;;;;;;10527448;28;20713;-67
2024/02/09 00:43:55;;;;;;;5.30;3.00;;;13.10;42.70;;;;;;10524456;28;20261;-67
2024/02/09 00:49:02;;;;;;;4.63;2.60;;;13.10;42.50;;;;;;10527926;28;21209;-67
2024/02/09 00:54:06;;;;;;;6.07;2.63;;;13.10;42.70;;;;;;10525737;28;20808;-66
2024/02/09 00:59:10;;;;;;;5.47;2.30;;;13.10;42.60;;;;;;10531774;28;20227;-67
2024/02/09 01:04:16;;;;;;;6.17;2.30;;;13.10;42.70;;;;;;10539866;28;20231;-67
2024/02/09 01:09:19;;;;;;;8.50;2.50;;;13.10;42.70;;;;;;10537759;28;20235;-67
2024/02/09 02:45:29;;;;;;;8.23;3.10;;;12.70;43.10;;;;;;10520378;28;20690;-70
2024/02/09 03:06:44;;;;;;;5.20;2.80;;;12.70;43.00;;;;;;10497088;28;20223;-68
2024/02/09 03:12:13;;;;;;;4.97;2.43;;;12.70;42.80;;;;;;10519649;28;20216;-69
2024/02/09 03:17:16;;;;;;;7.30;2.60;;;12.80;43.20;;;;;;10519033;28;20254;-69
2024/02/09 03:22:20;;;;;;;5.57;2.90;;;12.70;42.70;;;;;;10518290;28;20223;-69
2024/02/09 03:27:25;;;;;;;6.07;3.30;;;12.80;42.90;;;;;;10525352;28;20232;-69
2024/02/09 03:32:28;;;;;;;4.87;2.90;;;12.70;43.20;;;;;;10520544;28;20219;-66
2024/02/09 03:37:33;;;;;;;7.23;3.03;;;12.70;42.90;;;;;;10521121;28;20244;-66
2024/02/09 03:42:38;;;;;;;6.53;3.20;;;12.60;43.10;;;;;;10520279;28;20223;-67
2024/02/09 03:47:41;;;;;;;7.10;2.73;;;12.50;43.60;;;;;;10518333;28;20223;-66
2024/02/09 03:52:44;;;;;;;6.17;2.80;;;12.30;43.50;;;;;;10525069;28;20221;-66
2024/02/09 03:57:50;;;;;;;5.10;2.60;;;12.20;43.70;;;;;;10527538;28;20314;-67
2024/02/09 04:02:53;;;;;;;7.13;3.00;;;12.20;44.00;;;;;;10525082;28;20243;-66
2024/02/09 04:07:56;;;;;;;6.47;2.83;;;12.20;44.00;;;;;;10529852;28;20709;-67
2024/02/09 04:13:01;;;;;;;4.87;2.40;;;12.20;43.90;;;;;;10525840;28;20310;-67
2024/02/09 04:18:06;;;;;;;7.00;2.70;;;12.20;44.30;;;;;;10520698;28;20246;-67
2024/02/09 04:23:10;;;;;;;5.73;2.53;;;12.20;44.10;;;;;;10527029;28;20224;-68
2024/02/09 04:28:17;;;;;;;5.47;2.60;;;12.20;44.20;;;;;;10528424;27;20706;-68
2024/02/09 04:33:21;;;;;;;5.40;2.80;;;12.20;44.50;;;;;;10531296;28;20227;-68
2024/02/09 04:38:24;;;;;;;5.67;2.67;;;12.30;44.30;;;;;;10539386;28;20223;-68
2024/02/09 04:43:29;;;;;;;5.97;2.53;;;12.30;44.10;;;;;;10534522;28;20227;-66
2024/02/09 04:48:32;;;;;;;5.90;2.70;;;12.40;44.40;;;;;;10541957;28;20230;-66
2024/02/09 04:53:37;;;;;;;5.40;2.70;;;12.40;44.00;;;;;;10533557;28;20226;-67
2024/02/09 04:58:41;;;;;;;5.73;2.60;;;12.40;44.00;;;;;;10533933;28;20223;-66
2024/02/09 05:03:44;;;;;;;6.90;2.50;;;12.30;44.50;;;;;;10536798;28;20223;-66
2024/02/09 05:08:48;;;;;;;4.80;2.80;;;12.30;44.40;;;;;;10534065;28;20234;-67
2024/02/09 05:13:52;;;;;;;6.97;2.63;;;12.30;44.50;;;;;;10533489;27;20219;-67
2024/02/09 05:18:55;;;;;;;5.03;2.33;;;12.20;45.00;;;;;;10535828;28;20814;-66
2024/02/09 05:24:01;;;;;;;7.47;2.50;;;12.20;44.70;;;;;;10533988;28;20219;-67
2024/02/09 05:29:06;;;;;;;6.10;2.90;;;12.20;44.70;;;;;;10532028;27;20318;-66
2024/02/09 05:34:09;;;;;;;7.23;4.90;;;12.20;45.10;;;;;;10533592;28;20263;-69
2024/02/09 05:39:13;;;;;;;5.70;2.90;;;12.20;44.80;;;;;;10533998;28;20251;-69
2024/02/09 05:44:17;;;;;;;6.90;4.47;;;12.20;44.70;;;;;;10534316;28;20348;-69
2024/02/09 05:49:20;;;;;;;6.97;3.30;;;12.30;45.20;;;;;;10533362;27;20728;-69
2024/02/09 05:54:25;;;;;;;4.40;2.60;;;12.20;44.70;;;;;;10528485;28;20603;-69
2024/02/09 05:59:29;;;;;;;6.07;3.47;;;12.30;45.00;;;;;;10531903;28;20219;-70
2024/02/09 06:04:33;;;;;;;5.20;2.60;;;12.30;45.40;;;;;;10533969;28;20295;-70
2024/02/09 06:09:37;;;;;;;5.93;3.60;;;12.30;44.90;;;;;;10532442;28;20273;-69
2024/02/09 06:14:42;;;;;;;4.57;2.70;;;12.40;44.90;;;;;;10534933;27;20228;-70
2024/02/09 06:19:45;;;;;;;6.63;2.77;;;12.40;45.00;;;;;;10529944;28;20223;-70
2024/02/09 06:24:54;;;;;;;5.37;2.70;;;12.50;44.80;;;;;;10529409;28;20238;-79
2024/02/09 06:29:59;;;;;;;6.63;2.97;;;12.40;44.60;;;;;;10529068;28;20269;-70
2024/02/09 06:35:03;;;;;;;4.13;2.73;;;12.50;45.20;;;;;;10529828;28;20234;-69
2024/02/09 06:40:10;;;;;;;7.87;3.10;;;12.50;44.70;;;;;;10532433;28;20220;-70
2024/02/09 06:45:16;;;;;;;6.23;3.00;;;12.60;44.80;;;;;;10531557;28;20232;-70
2024/02/09 06:50:21;;;;;;;9.13;3.60;;;12.60;44.80;;;;;;10528385;28;20312;-70
2024/02/09 06:55:25;;;;;;;5.63;2.87;;;12.60;44.60;;;;;;10530709;28;20235;-69
2024/02/09 07:00:31;;;;;;;4.33;2.97;;;12.60;44.60;;;;;;10530232;27;20268;-69
2024/02/09 07:05:36;;;;;;;5.73;3.27;;;12.60;44.90;;;;;;10529322;28;20311;-69
2024/02/09 07:10:39;;;;;;;5.23;2.70;;;12.50;44.70;;;;;;10532608;28;20233;-69
2024/02/09 07:15:44;;;;;;;5.83;3.30;;;12.50;44.70;;;;;;10532211;28;20254;-69
2024/02/09 07:20:48;;;;;;;7.83;3.30;;;12.40;45.00;;;;;;10528280;28;20220;-68
2024/02/09 07:25:51;;;;;;;5.77;3.70;;;12.40;44.90;;;;;;10529664;28;20304;-70
2024/02/09 07:30:57;;;;;;;6.27;3.93;;;12.30;45.10;;;;;;10532912;28;20223;-70
2024/02/09 07:36:00;;;;;;;10.80;5.20;;;12.20;45.50;;;;;;10531799;27;20235;-70
2024/02/09 07:41:04;;;;;;;6.20;4.53;;;12.20;45.40;;;;;;10535366;28;20227;-70
2024/02/09 07:46:08;;;;;;;6.83;3.60;;;12.10;45.60;;;;;;10534092;28;20234;-70
2024/02/09 07:51:12;;;;;;;7.40;3.87;;;12.10;46.10;;;;;;10532830;28;20220;-70
2024/02/09 07:56:15;;;;;;;6.07;3.73;;;12.10;46.00;;;;;;10533581;27;20276;-70
2024/02/09 08:01:21;;;;;;;4.87;4.00;;;12.10;46.00;;;;;;10533164;28;20623;-70
2024/02/09 08:06:25;;;;;;;5.63;3.80;;;12.10;46.60;;;;;;10530167;28;20327;-70
2024/02/09 08:11:28;;;;;;;7.63;4.17;;;12.10;46.30;;;;;;10530039;28;20231;-70
2024/02/09 08:16:33;;;;;;;5.80;4.20;;;12.20;46.50;;;;;;10528392;28;20230;-70
2024/02/09 08:21:38;;;;;;;7.83;4.10;;;12.20;46.90;;;;;;10529428;28;20308;-70
2024/02/09 08:26:42;;;;;;;9.47;4.50;;;12.20;46.60;;;;;;10529269;28;20231;-70
2024/02/09 08:31:57;;;;;;;7.33;4.30;;;12.30;46.90;;;;;;10528187;28;20272;-70
2024/02/09 08:37:00;;;;;;;7.07;4.30;;;12.30;47.40;;;;;;10528676;28;20242;-70
2024/02/09 08:42:04;;;;;;;6.60;4.37;;;12.30;47.10;;;;;;10530798;28;20361;-70
2024/02/09 08:47:10;;;;;;;6.43;4.47;;;12.30;47.40;;;;;;10527914;28;20233;-70
2024/02/09 08:52:13;;;;;;;7.73;4.13;;;12.30;47.70;;;;;;10529080;28;20281;-70
2024/02/09 08:57:18;;;;;;;6.10;4.30;;;12.30;47.10;;;;;;10532744;28;20234;-70
2024/02/09 09:02:23;;;;;;;7.17;4.10;;;12.30;47.10;;;;;;10529257;28;20227;-70
2024/02/09 09:07:27;;;;;;;7.27;4.33;;;12.40;47.90;;;;;;10530046;28;20869;-70
2024/02/09 09:12:30;;;;;;;6.60;3.57;;;12.40;47.40;;;;;;10528743;28;20600;-70
2024/02/09 09:17:35;;;;;;;4.53;3.67;;;12.50;47.50;;;;;;10526468;28;20249;-70
2024/02/09 09:22:39;;;;;;;5.63;3.80;;;12.60;48.10;;;;;;10535131;28;20313;-70
2024/02/09 09:27:42;;;;;;;19.00;11.70;;;12.70;47.40;;;;;;10534929;28;20601;-70
2024/02/09 09:32:47;;;;;;;7.53;5.03;;;12.80;47.60;;;;;;10543690;28;20735;-70
2024/02/09 09:37:52;;;;;;;4.33;3.73;;;12.80;47.90;;;;;;10529171;28;20231;-70
2024/02/09 09:42:56;;;;;;;5.63;3.80;;;12.90;47.30;;;;;;10543026;28;20237;-70
2024/02/09 09:48:05;;;;;;;4.60;3.80;;;13.00;47.40;;;;;;10533582;28;20229;-70
2024/02/09 09:53:14;;;;;;;7.30;4.37;;;13.20;47.80;;;;;;10533144;28;20585;-70
2024/02/09 09:58:18;;;;;;;5.87;3.13;;;13.30;47.90;;;;;;10532108;27;20249;-70
2024/02/09 10:03:25;;;;;;;5.17;3.60;;;13.40;47.20;;;;;;10539749;28;20235;-67
2024/02/09 10:08:28;;;;;;;9.53;4.07;;;13.40;47.70;;;;;;10535098;27;20229;-67
2024/02/09 10:13:33;;;;;;;6.13;4.10;;;13.50;47.30;;;;;;10531107;28;20658;-68
2024/02/09 10:18:38;;;;;;;6.33;4.10;;;13.50;47.30;;;;;;10527701;28;20223;-70
2024/02/09 10:23:45;;;;;;;4.70;3.50;;;13.60;47.70;;;;;;10535784;28;20234;-70
2024/02/09 10:28:51;;;;;;;5.80;3.73;;;13.70;47.60;;;;;;10529555;28;20247;-70
2024/02/09 10:33:57;;;;;;;5.77;3.03;;;13.80;47.70;;;;;;10529932;28;20235;-70
2024/02/09 10:39:00;;;;;;;4.33;3.00;;;13.90;47.70;;;;;;10531461;28;20634;-70
2024/02/09 10:44:04;;;;;;;5.03;2.63;;;14.00;47.30;;;;;;10533123;28;20241;-70
2024/02/09 10:49:10;;;;;;;4.80;3.77;;;14.10;47.30;;;;;;10526476;28;20277;-67
2024/02/09 10:54:17;;;;;;;4.67;3.53;;;14.20;47.80;;;;;;10536106;28;20220;-67
2024/02/09 10:59:22;;;;;;;3.37;2.90;;;14.30;47.90;;;;;;10526818;28;20278;-67
2024/02/09 11:04:27;;;;;;;4.00;2.97;;;14.40;47.50;;;;;;10533092;27;20276;-67
2024/02/09 11:09:31;;;;;;;4.13;2.70;;;14.50;47.90;;;;;;10531593;28;20247;-67
2024/02/09 11:14:35;;;;;;;3.93;2.83;;;14.60;47.30;;;;;;10520803;28;20238;-68
2024/02/09 11:19:40;;;;;;;4.00;2.47;;;14.60;47.00;;;;;;10529441;28;20333;-68
2024/02/09 11:24:47;;;;;;;1.70;1.60;;;14.70;47.20;;;;;;10526561;28;20223;-67
2024/02/09 11:29:51;;;;;;;3.77;1.77;;;14.90;47.00;;;;;;10532300;28;20235;-67
2024/02/09 11:34:57;;;;;;;2.53;1.73;;;15.00;46.80;;;;;;10528476;28;20232;-67
2024/02/09 11:40:01;;;;;;;3.23;1.70;;;15.10;46.20;;;;;;10521092;28;20267;-67
2024/02/09 11:45:05;;;;;;;3.27;2.00;;;15.20;46.50;;;;;;10519764;28;20219;-68
2024/02/09 11:50:20;;;;;;;2.10;1.87;;;15.30;46.40;;;;;;10520430;28;20306;-67
2024/02/09 11:55:23;;;;;;;2.00;1.80;;;15.40;45.90;;;;;;10519509;28;20317;-67
2024/02/09 12:00:27;;;;;;;2.27;2.00;;;15.50;45.70;;;;;;10523268;28;20228;-70
2024/02/09 12:05:32;;;;;;;2.67;1.80;;;15.60;45.50;;;;;;10523188;28;20288;-70
2024/02/09 12:10:36;;;;;;;2.93;1.87;;;15.60;44.90;;;;;;10516950;28;20251;-70
2024/02/09 12:15:40;;;;;;;2.83;1.83;;;15.70;45.00;;;;;;10521459;28;20228;-70
2024/02/09 12:20:45;;;;;;;2.30;1.60;;;15.80;45.10;;;;;;10515260;28;20223;-70
2024/02/09 12:25:48;;;;;;;3.43;1.70;;;15.80;44.90;;;;;;10519888;28;20306;-72
2024/02/09 12:30:52;;;;;;;4.63;1.40;;;15.80;44.40;;;;;;10525133;28;20247;-72
2024/02/09 12:36:04;;;;;;;2.20;1.67;;;15.90;44.60;;;;;;10511286;28;20364;-71
2024/02/09 12:41:08;;;;;;;1.57;1.47;;;15.90;44.20;;;;;;10517970;28;20276;-71
2024/02/09 12:46:12;;;;;;;3.47;1.67;;;15.90;44.80;;;;;;10519798;28;20220;-70
2024/02/09 12:51:16;;;;;;;2.53;2.20;;;16.00;44.40;;;;;;10519728;28;20231;-70
2024/02/09 12:56:19;;;;;;;3.43;1.70;;;16.00;43.90;;;;;;10522861;28;20362;-70
2024/02/09 13:01:23;;;;;;;3.07;1.67;;;16.10;44.00;;;;;;10527206;28;20230;-70
2024/02/09 13:06:27;;;;;;;3.97;1.70;;;16.10;43.80;;;;;;10524923;27;20740;-70
2024/02/09 13:11:31;;;;;;;3.13;2.10;;;16.10;43.50;;;;;;10525645;28;20336;-71
2024/02/09 13:16:34;;;;;;;3.20;1.80;;;16.20;43.70;;;;;;10522671;28;20232;-71
2024/02/09 13:21:39;;;;;;;2.17;1.40;;;16.20;43.60;;;;;;10529987;28;20227;-71
2024/02/09 13:26:44;;;;;;;1.87;1.40;;;16.20;43.20;;;;;;10524101;28;20234;-71
2024/02/09 13:31:47;;;;;;;3.77;1.50;;;16.20;43.70;;;;;;10530391;28;20334;-71
2024/02/09 13:36:52;;;;;;;3.37;2.33;;;16.30;43.40;;;;;;10527154;28;20257;-71
2024/02/09 13:41:55;;;;;;;4.27;3.07;;;16.30;42.90;;;;;;10527944;28;20245;-71
2024/02/09 13:47:00;;;;;;;4.33;2.60;;;16.40;43.20;;;;;;10531563;28;20232;-71
2024/02/09 13:52:05;;;;;;;5.00;2.07;;;16.30;43.20;;;;;;10525740;28;20955;-70
2024/02/09 13:57:09;;;;;;;3.87;1.87;;;16.30;42.40;;;;;;10520156;28;20258;-70
2024/02/09 14:02:12;;;;;;;3.00;2.00;;;16.30;42.60;;;;;;10521473;28;20230;-70
2024/02/09 14:07:17;;;;;;;4.60;2.10;;;16.30;42.80;;;;;;10527183;28;20682;-70
2024/02/09 14:12:20;;;;;;;4.70;2.17;;;16.20;42.60;;;;;;10531679;28;20285;-70
2024/02/09 14:17:28;;;;;;;5.80;2.27;;;16.10;43.00;;;;;;10530134;28;20323;-70
2024/02/09 14:22:32;;;;;;;5.33;2.20;;;16.10;43.00;;;;;;10528582;28;20224;-71
2024/02/09 14:27:38;;;;;;;3.10;1.80;;;16.10;42.60;;;;;;10520216;28;20277;-71
2024/02/09 14:32:42;;;;;;;4.27;1.97;;;16.10;42.90;;;;;;10525527;28;20235;-70
2024/02/09 14:37:47;;;;;;;4.73;2.93;;;16.10;42.70;;;;;;10521422;27;20220;-70
2024/02/09 14:42:50;;;;;;;4.20;2.20;;;16.10;42.40;;;;;;10525651;28;20239;-71
2024/02/09 14:47:54;;;;;;;5.53;3.00;;;16.00;42.70;;;;;;10516775;28;21108;-71
2024/02/09 14:52:59;;;;;;;5.13;2.63;;;16.00;42.50;;;;;;10524077;28;20231;-71
2024/02/09 14:58:02;;;;;;;5.80;2.80;;;16.00;42.10;;;;;;10522688;28;20261;-71
2024/02/09 15:03:07;;;;;;;4.73;3.90;;;16.10;42.50;;;;;;10527807;28;20927;-71
2024/02/09 15:08:12;;;;;;;5.67;3.40;;;16.10;42.50;;;;;;10524755;28;20228;-71
2024/02/09 15:13:16;;;;;;;4.80;2.70;;;16.10;42.00;;;;;;10532041;28;20255;-71
2024/02/09 15:18:19;;;;;;;6.87;3.20;;;16.20;42.00;;;;;;10522956;28;20323;-71
2024/02/09 15:23:24;;;;;;;5.07;3.43;;;16.20;42.10;;;;;;10528257;28;20238;-71
2024/02/09 15:28:28;;;;;;;7.43;3.50;;;16.20;41.90;;;;;;10530863;28;20306;-71
2024/02/09 15:33:32;;;;;;;7.50;3.60;;;16.20;42.30;;;;;;10526386;28;20327;-71
2024/02/09 15:38:37;;;;;;;6.40;4.57;;;16.30;42.20;;;;;;10529754;28;21046;-71
2024/02/09 15:43:41;;;;;;;8.27;5.03;;;16.20;41.70;;;;;;10525494;28;20241;-71
2024/02/09 15:48:46;;;;;;;7.23;4.53;;;16.30;42.20;;;;;;10526777;28;20220;-71
2024/02/09 15:53:53;;;;;;;10.37;4.67;;;16.30;42.10;;;;;;10530769;28;20281;-71
2024/02/09 15:58:56;;;;;;;5.57;3.83;;;16.20;42.20;;;;;;10527865;28;20250;-71
2024/02/09 16:03:59;;;;;;;4.50;2.73;;;16.20;42.50;;;;;;10529382;28;20231;-71
2024/02/09 16:09:04;;;;;;;6.30;3.10;;;16.20;42.40;;;;;;10522170;28;20228;-71
2024/02/09 16:14:09;;;;;;;5.13;2.97;;;16.20;42.40;;;;;;10527689;28;20315;-71
2024/02/09 16:19:13;;;;;;;3.97;2.60;;;16.10;42.40;;;;;;10520719;28;20269;-71
2024/02/09 16:24:17;;;;;;;5.10;3.07;;;16.10;42.50;;;;;;10527626;28;20345;-71
2024/02/09 16:29:21;;;;;;;4.20;2.63;;;16.00;42.40;;;;;;10525536;28;20715;-71
2024/02/09 16:34:25;;;;;;;5.20;3.10;;;16.00;42.30;;;;;;10535132;28;20223;-73
2024/02/09 16:39:31;;;;;;;6.70;3.40;;;15.90;42.40;;;;;;10538532;28;20660;-72
2024/02/09 16:44:36;;;;;;;4.67;3.87;;;15.90;42.50;;;;;;10532280;28;20230;-73
2024/02/09 16:49:40;;;;;;;4.27;3.63;;;15.80;42.90;;;;;;10528080;28;20227;-73
2024/02/09 16:54:45;;;;;;;7.87;5.17;;;15.80;43.00;;;;;;10535034;28;20752;-73
2024/02/09 16:59:48;;;;;;;6.57;3.57;;;15.70;42.80;;;;;;10536083;28;20216;-73
2024/02/09 17:04:52;;;;;;;6.87;3.27;;;15.60;42.70;;;;;;10531377;28;20220;-73
2024/02/09 17:09:57;;;;;;;5.73;3.00;;;15.60;42.60;;;;;;10530447;28;22294;-69
2024/02/09 17:15:07;;;;;;;3.83;2.60;;;15.60;42.90;;;;;;10541492;28;20567;-69
2024/02/09 17:20:11;;;;;;;4.50;3.40;;;15.60;42.90;;;;;;10535373;28;20660;-69
2024/02/09 17:25:17;;;;;;;7.20;4.60;;;15.60;42.90;;;;;;10535189;28;20322;-69
2024/02/09 17:30:20;;;;;;;11.50;8.17;;;15.50;43.10;;;;;;10528644;28;20223;-69
2024/02/09 17:35:26;;;;;;;10.00;8.00;;;15.50;43.00;;;;;;10536562;28;20724;-69
2024/02/09 17:40:31;;;;;;;8.33;6.20;;;15.50;43.20;;;;;;10535554;28;20235;-69
2024/02/09 17:45:35;;;;;;;5.97;4.57;;;15.50;43.00;;;;;;10531555;28;20223;-72
2024/02/09 17:50:39;;;;;;;8.00;4.53;;;15.50;43.00;;;;;;10535026;28;20223;-72
2024/02/09 17:55:44;;;;;;;5.27;3.97;;;15.40;42.70;;;;;;10534188;28;20227;-72
2024/02/09 18:00:47;;;;;;;7.20;3.63;;;15.40;42.80;;;;;;10536848;28;20224;-72
2024/02/09 18:05:50;;;;;;;8.87;6.27;;;15.40;42.80;;;;;;10536969;28;20238;-72
2024/02/09 18:10:55;;;;;;;14.53;7.57;;;15.40;42.70;;;;;;10533999;28;20313;-72
2024/02/09 18:15:58;;;;;;;10.43;7.13;;;15.30;42.70;;;;;;10537035;28;20231;-71
2024/02/09 18:21:01;;;;;;;11.37;8.27;;;15.30;42.90;;;;;;10537198;27;20219;-72
2024/02/09 18:26:06;;;;;;;13.83;8.50;;;15.20;42.90;;;;;;10537131;28;20255;-72
2024/02/09 18:31:13;;;;;;;12.77;8.10;;;15.20;42.80;;;;;;10528236;27;20233;-72
2024/02/09 18:36:16;;;;;;;9.43;7.40;;;15.20;42.60;;;;;;10528673;28;20260;-74
2024/02/09 18:41:21;;;;;;;12.53;7.50;;;15.20;42.70;;;;;;10523039;28;20671;-73
2024/02/09 18:46:25;;;;;;;13.07;7.37;;;15.10;43.00;;;;;;10514586;28;20917;-73
2024/02/09 18:51:29;;;;;;;12.87;7.30;;;15.20;43.00;;;;;;10522466;28;20316;-73
2024/02/09 18:56:34;;;;;;;8.67;6.20;;;15.10;42.80;;;;;;10520520;27;20235;-73
2024/02/09 19:01:37;;;;;;;9.53;5.60;;;15.10;42.30;;;;;;10523443;28;20255;-73
2024/02/09 19:06:41;;;;;;;10.40;5.07;;;15.10;42.40;;;;;;10525296;28;20824;-73
2024/02/09 19:11:47;;;;;;;9.90;5.13;;;15.00;42.50;;;;;;10524238;28;20232;-72
2024/02/09 19:16:50;;;;;;;9.87;6.80;;;15.00;42.60;;;;;;10533002;28;20312;-73
2024/02/09 19:21:54;;;;;;;10.63;7.10;;;15.00;42.30;;;;;;10525991;28;20268;-73
2024/02/09 19:26:59;;;;;;;8.97;6.33;;;14.90;42.50;;;;;;10530976;28;20595;-73
2024/02/09 19:32:02;;;;;;;9.80;5.40;;;14.80;42.80;;;;;;10530928;28;20223;-71
2024/02/09 19:37:05;;;;;;;12.83;6.00;;;14.80;42.90;;;;;;10528599;28;20775;-73
2024/02/09 19:42:09;;;;;;;9.37;4.97;;;14.70;42.60;;;;;;10528249;28;20227;-72
2024/02/09 19:47:13;;;;;;;9.40;5.10;;;14.70;42.40;;;;;;10529488;27;20219;-72
2024/02/09 19:52:17;;;;;;;12.10;6.07;;;14.70;42.50;;;;;;10530960;28;20851;-73
2024/02/09 19:57:21;;;;;;;7.07;5.50;;;14.60;42.60;;;;;;10528966;28;20223;-72
2024/02/09 20:02:24;;;;;;;10.63;4.97;;;14.60;42.70;;;;;;10534098;28;20874;-72
2024/02/09 20:07:39;;;;;;;18.30;11.17;;;14.60;42.80;;;;;;10524402;28;20223;-72
2024/02/09 20:12:43;;;;;;;12.90;8.43;;;14.60;42.50;;;;;;10531273;28;20230;-72
2024/02/09 20:17:46;;;;;;;8.33;5.07;;;14.40;42.60;;;;;;10526519;28;20231;-73
2024/02/09 20:22:52;;;;;;;8.63;4.77;;;14.30;43.00;;;;;;10520792;28;20245;-73
2024/02/09 20:27:58;;;;;;;8.33;4.87;;;14.30;42.80;;;;;;10522417;28;20254;-68
2024/02/09 20:33:05;;;;;;;9.57;4.53;;;14.30;42.90;;;;;;10523001;28;20774;-68
2024/02/09 20:38:10;;;;;;;7.03;3.93;;;14.20;42.70;;;;;;10522819;28;20224;-68
2024/02/09 20:43:17;;;;;;;6.23;3.53;;;14.20;42.90;;;;;;10521317;28;20300;-69
2024/02/09 20:48:22;;;;;;;9.40;5.77;;;14.20;43.00;;;;;;10521939;28;20231;-68
2024/02/09 20:53:36;;;;;;;8.93;4.10;;;14.20;42.70;;;;;;10524623;28;20239;-68
2024/02/09 20:58:43;;;;;;;4.77;3.60;;;14.20;42.70;;;;;;10516191;28;20223;-68
2024/02/09 21:03:47;;;;;;;5.40;4.07;;;14.10;42.90;;;;;;10523378;28;20228;-68
2024/02/09 21:08:51;;;;;;;8.33;4.90;;;14.10;42.90;;;;;;10523744;28;20230;-68
2024/02/09 21:13:55;;;;;;;11.00;4.53;;;14.10;43.60;;;;;;10521436;28;20250;-68
2024/02/09 21:18:59;;;;;;;9.03;5.07;;;14.10;43.10;;;;;;10526278;28;20223;-69
2024/02/09 21:24:05;;;;;;;7.07;4.60;;;14.10;42.90;;;;;;10525825;28;20941;-69
2024/02/09 21:29:09;;;;;;;9.03;4.83;;;14.00;43.00;;;;;;10527930;28;20237;-68
2024/02/09 21:34:12;;;;;;;9.67;5.20;;;14.00;43.40;;;;;;10523580;28;20239;-68
2024/02/09 21:39:16;;;;;;;8.10;5.83;;;14.00;43.30;;;;;;10528759;28;20228;-68
2024/02/09 21:44:21;;;;;;;8.23;5.43;;;13.90;43.40;;;;;;10528215;28;20255;-73
2024/02/09 21:49:24;;;;;;;7.40;5.50;;;13.70;43.20;;;;;;10525908;28;20233;-72
2024/02/09 21:54:27;;;;;;;6.53;5.20;;;13.60;43.10;;;;;;10533638;27;20227;-72
2024/02/09 21:59:32;;;;;;;7.73;4.97;;;13.60;43.30;;;;;;10531312;27;20751;-73
2024/02/09 22:04:42;;;;;;;12.07;5.57;;;13.60;43.40;;;;;;10532721;27;20228;-68
2024/02/09 22:09:45;;;;;;;11.37;6.30;;;13.60;43.10;;;;;;10537167;28;20223;-68
2024/02/09 22:14:53;;;;;;;10.27;6.33;;;13.60;43.10;;;;;;10532828;28;20277;-68
2024/02/09 22:19:57;;;;;;;11.73;6.50;;;13.60;43.10;;;;;;10527454;28;20216;-68
2024/02/09 22:25:03;;;;;;;8.10;5.43;;;13.60;43.10;;;;;;10532765;28;20714;-68
2024/02/09 22:30:09;;;;;;;8.50;5.50;;;13.70;43.20;;;;;;10532983;27;20223;-68
2024/02/09 22:35:14;;;;;;;7.93;4.80;;;13.60;43.50;;;;;;10529963;28;20228;-69
2024/02/09 22:40:17;;;;;;;9.53;5.07;;;13.60;43.10;;;;;;10532667;28;20227;-68
2024/02/09 22:45:24;;;;;;;6.43;4.70;;;13.60;43.10;;;;;;10529223;28;20243;-69
2024/02/09 22:50:27;;;;;;;9.27;4.87;;;13.60;43.10;;;;;;10532598;28;20778;-68
2024/02/09 22:55:30;;;;;;;9.50;4.50;;;13.60;43.10;;;;;;10526487;28;20231;-68
2024/02/09 23:00:36;;;;;;;8.07;4.87;;;13.60;43.10;;;;;;10525206;28;20229;-68
2024/02/09 23:05:40;;;;;;;10.50;4.90;;;13.50;43.00;;;;;;10531906;28;20269;-73
2024/02/09 23:10:44;;;;;;;5.63;4.50;;;13.60;43.10;;;;;;10525512;28;20220;-72
2024/02/09 23:15:50;;;;;;;7.40;4.80;;;13.50;43.00;;;;;;10529030;28;20266;-72
2024/02/09 23:20:56;;;;;;;6.67;4.50;;;13.50;43.00;;;;;;10522347;28;20597;-72
2024/02/09 23:25:59;;;;;;;6.17;4.73;;;13.50;43.00;;;;;;10525528;28;20310;-73
2024/02/09 23:31:03;;;;;;;7.97;4.47;;;13.40;42.90;;;;;;10526776;28;20225;-72
2024/02/09 23:36:07;;;;;;;6.60;4.30;;;13.30;42.80;;;;;;10523818;28;20230;-72
2024/02/09 23:41:10;;;;;;;5.97;4.87;;;13.30;42.80;;;;;;10530333;28;20230;-70
2024/02/09 23:46:15;;;;;;;5.97;4.43;;;13.30;42.80;;;;;;10531811;28;20228;-70
2024/02/09 23:51:19;;;;;;;8.17;4.50;;;13.30;43.00;;;;;;10527981;28;20317;-69
2024/02/09 23:56:22;;;;;;;6.03;4.57;;;13.30;42.80;;;;;;10525888;28;20245;-70
